עמוד ראשי
METAR-TAF:

METAR-TAF

שדות תעופה :

Inuvik, הטריטוריות הצפון-מערביות, קנדה

קו רוחב: 68-18N, קו אורך: 133-29W, גובה: 59מטר

תצפית מזג אוויר נוכחית

הדו"ח נערך לפני 1 שעות ו 19דקות, בשעה 20:00 UTC
רוח 5קשר מכיוון מערב/צפון-מערב
טמפרטורת 19 צלסיוס
לחות 34%
לחץ 1012 hPa
ראות: 24.1קילומטר
מעט עננים בגובה 7000רגל
עננים פזורים בגובה 9000רגל
עננים בינוניים בגובה 24000רגל

METAR: CYEV 172000Z 29005KT 15SM FEW070 SCT090 BKN240 19/03 A2989 RMK AC1AC3CI3 SLP126 DENSITY ALT 800FT

זמן: 15:19 (21:19 UTC)

תחזית

הדו"ח נערך לפני 2 שעות ו 39דקות, בשעה 18:40 UTC
תחזית בתוקף מ 17 ב 19 UTC עד 18 ב 07 UTC
רוח 7קשר מכיוון צפון-מערב
ראות: 10קילומטר
עננים פזורים בגובה 7000רגל
עננים בינוניים בגובה 24000רגל
מ 18 ב 0000UTC
רוח 9קשר מכיוון צפון
ראות: 10קילומטר
עננים פזורים בגובה 10000רגל
עננים בינוניים בגובה 22000רגל

TAF: CYEV 171840Z 1719/1807 32007KT P6SM SCT070 BKN240 FM180000 35009KT P6SM SCT100 BKN220 RMK NXT FCST BY 180100Z

תצפיות ותחזיות מזג אוויר לגבי יותר מ- 4,000 שדות תעופה ברחבי העולם. דוחות METAR ו- TAF.

התחנות הזמינות מסומנות בנקודות צהובות ואדומות על גבי המפה.

העבר את העכבר לנקודה הצבעונית על מנת לראות את שם התחנה.

לאחר מכן, לחץ כדי לראות את תוכן ואת תחזיות מזג האוויר.

כדי לשנות את המפה: לחץ על הכפתורים הירוקים עם הפלוס השחור כדי להתקרב; על הכפתור הירוק עם המקף כדי להתרחק; או בחיצים הירוקים למפות סמוכות.


METAR-TAF: